createdAt,value
2019-02-06T00:00:31.555Z,48.53
2019-02-06T00:04:36.750Z,45.37
2019-02-06T00:08:41.572Z,44.67
2019-02-06T00:12:47.022Z,43.93
2019-02-06T00:16:51.962Z,45.70
2019-02-06T00:20:57.097Z,51.53
2019-02-06T00:25:01.926Z,46.90
2019-02-06T00:29:06.761Z,45.20
2019-02-06T00:33:11.593Z,50.00
2019-02-06T00:37:16.401Z,46.67
2019-02-06T00:41:21.236Z,47.93
2019-02-06T00:45:26.235Z,44.10
2019-02-06T00:49:31.064Z,49.43
2019-02-06T00:53:36.867Z,44.40
2019-02-06T00:57:42.037Z,46.20
2019-02-06T01:01:46.951Z,47.53
2019-02-06T01:05:51.836Z,43.50
2019-02-06T01:09:56.859Z,48.97
2019-02-06T01:14:01.850Z,47.63
2019-02-06T01:18:06.644Z,46.97
2019-02-06T01:22:11.476Z,46.70
2019-02-06T01:26:16.300Z,48.60
2019-02-06T01:30:23.324Z,47.87
2019-02-06T01:34:28.157Z,49.40
2019-02-06T01:38:32.964Z,49.43
2019-02-06T01:42:38.248Z,50.20
2019-02-06T01:46:43.172Z,52.13
2019-02-06T01:50:48.014Z,48.23
2019-02-06T01:54:53.813Z,50.10
2019-02-06T01:58:58.651Z,49.97
2019-02-06T02:03:03.479Z,50.77
2019-02-06T02:07:08.296Z,47.67
2019-02-06T02:11:13.220Z,49.20
2019-02-06T02:15:19.079Z,48.20
2019-02-06T02:19:23.883Z,53.67
2019-02-06T02:23:28.720Z,51.17
2019-02-06T02:27:34.000Z,54.00
2019-02-06T02:31:39.246Z,50.30
2019-02-06T02:35:44.212Z,51.23
2019-02-06T02:39:49.079Z,52.63
2019-02-06T02:43:54.947Z,54.77
2019-02-06T02:47:59.895Z,58.93
2019-02-06T02:52:04.899Z,44.13
2019-02-06T02:56:12.244Z,57.93
2019-02-06T03:00:28.295Z,59.53
2019-02-06T03:04:33.284Z,61.80
2019-02-06T03:08:38.111Z,62.67
2019-02-06T03:12:42.975Z,67.47
2019-02-06T03:16:47.952Z,56.40
2019-02-06T03:20:52.850Z,55.60
2019-02-06T03:24:57.823Z,61.40
2019-02-06T03:29:02.821Z,66.63
2019-02-06T03:33:08.032Z,61.50
2019-02-06T03:37:12.907Z,65.83
2019-02-06T03:41:17.838Z,74.93
2019-02-06T03:45:22.783Z,69.67
2019-02-06T03:49:27.713Z,72.50
2019-02-06T03:53:32.535Z,80.50
2019-02-06T03:57:37.372Z,78.47
2019-02-06T04:01:43.164Z,68.70
2019-02-06T04:05:47.997Z,75.07
2019-02-06T04:09:53.148Z,73.57
2019-02-06T04:13:58.949Z,73.27
2019-02-06T04:18:03.980Z,77.00
2019-02-06T04:22:09.112Z,78.97
2019-02-06T04:26:13.985Z,79.50
2019-02-06T04:30:19.600Z,84.27
2019-02-06T04:34:24.438Z,78.33
2019-02-06T04:38:29.268Z,75.67
2019-02-06T04:42:34.146Z,71.13
2019-02-06T04:46:39.010Z,77.47
2019-02-06T04:50:43.933Z,73.17
2019-02-06T04:54:49.026Z,70.57
2019-02-06T04:58:53.917Z,78.40
2019-02-06T05:02:58.747Z,69.23
2019-02-06T05:07:03.584Z,70.53
2019-02-06T05:11:08.425Z,73.57
2019-02-06T05:15:14.995Z,67.40
2019-02-06T05:19:19.814Z,63.60
2019-02-06T05:23:24.652Z,72.40
2019-02-06T05:27:29.642Z,68.63
2019-02-06T05:31:34.436Z,59.80
2019-02-06T05:35:39.245Z,56.50
2019-02-06T05:39:44.376Z,64.97
2019-02-06T05:43:49.211Z,59.60
2019-02-06T05:47:54.050Z,49.23
2019-02-06T05:51:58.987Z,51.80
2019-02-06T05:56:04.334Z,49.10
2019-02-06T06:00:15.003Z,45.57
2019-02-06T06:04:19.959Z,48.40
2019-02-06T06:08:25.511Z,47.83
2019-02-06T06:12:30.820Z,48.73
2019-02-06T06:16:36.305Z,43.13
2019-02-06T06:20:41.153Z,46.87
2019-02-06T06:24:46.328Z,45.13
2019-02-06T06:28:51.232Z,39.97
2019-02-06T06:32:56.108Z,40.73
2019-02-06T06:37:02.958Z,42.17
2019-02-06T06:41:07.519Z,37.87
2019-02-06T06:45:20.560Z,37.47
2019-02-06T06:49:25.435Z,40.40
2019-02-06T06:53:30.340Z,39.83
2019-02-06T06:57:35.275Z,38.30
2019-02-06T07:01:40.387Z,28.20
2019-02-06T07:05:45.223Z,27.43
2019-02-06T07:09:51.051Z,23.93
2019-02-06T07:13:55.878Z,22.03
2019-02-06T07:18:00.897Z,20.43
2019-02-06T07:22:05.907Z,22.67
2019-02-06T07:26:10.860Z,19.27
2019-02-06T07:30:29.861Z,19.40
2019-02-06T07:34:35.023Z,20.70
2019-02-06T07:38:39.855Z,19.10
2019-02-06T07:42:47.037Z,18.93
2019-02-06T07:46:52.172Z,18.40
2019-02-06T07:50:57.263Z,18.03
2019-02-06T07:55:02.555Z,17.87
2019-02-06T07:59:07.789Z,17.23
2019-02-06T08:03:12.895Z,16.47
2019-02-06T08:07:18.035Z,16.77
2019-02-06T08:11:23.112Z,16.87
2019-02-06T08:15:28.023Z,15.03
2019-02-06T08:19:33.112Z,15.27
2019-02-06T08:23:38.231Z,14.00
2019-02-06T08:27:43.319Z,14.23
2019-02-06T08:31:48.229Z,13.23
2019-02-06T08:35:53.318Z,12.87
2019-02-06T08:39:58.439Z,14.00
2019-02-06T08:44:03.817Z,13.40
2019-02-06T08:48:08.901Z,15.40
2019-02-06T08:52:14.008Z,14.30
2019-02-06T08:56:19.118Z,14.30
2019-02-06T09:00:38.219Z,15.03
2019-02-06T09:04:54.222Z,14.90
2019-02-06T09:08:59.263Z,14.23
2019-02-06T09:12:57.463Z,18.17
2019-02-06T09:17:02.569Z,13.13
2019-02-06T09:21:07.692Z,14.53
2019-02-06T09:25:18.535Z,13.03
2019-02-06T09:29:25.021Z,13.58
2019-02-06T09:33:30.500Z,12.77
2019-02-06T09:37:35.611Z,13.93
2019-02-06T09:41:40.911Z,13.47
2019-02-06T09:45:46.027Z,12.80
2019-02-06T09:49:51.134Z,11.53
2019-02-06T09:53:55.951Z,15.40
2019-02-06T09:58:02.028Z,13.00
2019-02-06T10:02:09.420Z,13.10
2019-02-06T10:06:13.911Z,13.30
2019-02-06T10:10:21.529Z,12.90
2019-02-06T10:14:26.644Z,12.20
2019-02-06T10:18:31.934Z,14.97
2019-02-06T10:22:37.146Z,12.27
2019-02-06T10:26:42.215Z,13.10
2019-02-06T10:30:48.863Z,13.63
2019-02-06T10:34:54.072Z,12.40
2019-02-06T10:38:58.884Z,11.57
2019-02-06T10:43:04.157Z,14.10
2019-02-06T10:47:09.272Z,12.50
2019-02-06T10:51:14.751Z,12.87
2019-02-06T10:55:20.191Z,14.90
2019-02-06T10:59:25.347Z,11.97
2019-02-06T11:03:30.456Z,10.20
2019-02-06T11:07:35.564Z,9.73
2019-02-06T11:11:40.751Z,6.80
2019-02-06T11:15:45.843Z,7.67
2019-02-06T11:19:50.948Z,11.27
2019-02-06T11:23:55.752Z,6.80
2019-02-06T11:28:00.847Z,6.93
2019-02-06T11:32:06.255Z,9.73
2019-02-06T11:36:11.355Z,8.07
2019-02-06T11:40:19.227Z,6.50
2019-02-06T11:44:25.382Z,8.50
2019-02-06T11:48:30.523Z,8.53
2019-02-06T11:52:35.620Z,8.20
2019-02-06T11:56:40.784Z,6.53
2019-02-06T12:00:50.279Z,9.07
2019-02-06T12:04:55.387Z,7.27
2019-02-06T12:09:00.497Z,10.30
2019-02-06T12:13:07.359Z,9.73
2019-02-06T12:17:12.463Z,8.27
2019-02-06T12:21:18.163Z,7.70
2019-02-06T12:25:23.414Z,8.90
2019-02-06T12:29:28.484Z,7.90
2019-02-06T12:33:36.536Z,9.17
2019-02-06T12:37:40.179Z,12.20
2019-02-06T12:41:45.130Z,16.23
2019-02-06T12:45:50.017Z,14.50
2019-02-06T12:49:54.851Z,14.37
2019-02-06T12:53:59.823Z,16.20
2019-02-06T12:58:05.859Z,15.97
2019-02-06T13:02:11.064Z,14.00
2019-02-06T13:06:15.988Z,15.43
2019-02-06T13:10:32.937Z,19.83
2019-02-06T13:14:28.969Z,16.33
2019-02-06T13:18:33.797Z,21.83
2019-02-06T13:22:38.608Z,19.87
2019-02-06T13:26:44.285Z,21.63
2019-02-06T13:30:49.176Z,19.67
2019-02-06T13:34:53.975Z,19.60
2019-02-06T13:38:59.100Z,21.33
2019-02-06T13:43:04.318Z,23.77
2019-02-06T13:47:10.310Z,21.03
2019-02-06T13:51:19.022Z,20.33
2019-02-06T13:55:21.824Z,21.10
2019-02-06T13:59:26.992Z,21.33
2019-02-06T14:03:31.987Z,22.37
2019-02-06T14:07:37.038Z,20.97
2019-02-06T14:11:42.022Z,22.13
2019-02-06T14:15:48.076Z,23.17
2019-02-06T14:19:52.931Z,22.10
2019-02-06T14:24:01.086Z,23.00
2019-02-06T14:28:24.956Z,21.83
2019-02-06T14:32:58.947Z,22.73
2019-02-06T14:37:39.147Z,21.47
2019-02-06T14:42:10.063Z,22.40
2019-02-06T14:46:37.758Z,26.13
2019-02-06T14:50:58.016Z,23.23
2019-02-06T14:55:15.150Z,26.67
2019-02-06T14:59:29.582Z,25.43
2019-02-06T15:03:58.625Z,23.43
2019-02-06T15:08:12.519Z,22.83
2019-02-06T15:12:35.791Z,26.07
2019-02-06T15:17:01.907Z,23.10
2019-02-06T15:21:13.155Z,24.07
2019-02-06T15:25:37.750Z,26.30
2019-02-06T15:30:00.630Z,25.17
2019-02-06T15:34:33.056Z,26.90
2019-02-06T15:39:16.175Z,25.23
2019-02-06T15:43:41.026Z,26.97
2019-02-06T15:48:01.134Z,30.00
2019-02-06T15:52:18.498Z,24.77
2019-02-06T15:56:44.341Z,26.77
2019-02-06T16:01:18.585Z,26.10
2019-02-06T16:05:36.868Z,27.50
2019-02-06T16:09:54.083Z,24.93
2019-02-06T16:14:23.332Z,30.27
2019-02-06T16:18:37.682Z,29.00
2019-02-06T16:23:01.222Z,24.97
2019-02-06T16:27:22.449Z,28.73
2019-02-06T16:31:47.936Z,26.10
2019-02-06T16:36:17.343Z,24.23
2019-02-06T16:40:46.572Z,22.70
2019-02-06T16:44:55.615Z,23.93
2019-02-06T16:49:17.467Z,23.83
2019-02-06T16:53:32.649Z,23.33
2019-02-06T16:57:43.946Z,25.43
2019-02-06T17:01:58.376Z,30.60
2019-02-06T17:06:06.504Z,29.53
2019-02-06T17:10:47.310Z,30.87
2019-02-06T17:14:58.620Z,28.00
2019-02-06T17:19:06.725Z,29.73
2019-02-06T17:23:24.036Z,30.40
2019-02-06T17:27:41.283Z,63.17
2019-02-06T17:32:04.019Z,27.90
2019-02-06T17:36:30.554Z,28.53
2019-02-06T17:40:44.887Z,27.77
2019-02-06T17:44:59.156Z,30.40
2019-02-06T17:49:24.476Z,30.93
2019-02-06T17:53:41.682Z,31.33
2019-02-06T17:57:47.764Z,33.47
2019-02-06T18:01:52.833Z,36.67
2019-02-06T18:05:59.678Z,30.13
2019-02-06T18:10:07.845Z,49.03
2019-02-06T18:14:14.922Z,26.87
2019-02-06T18:18:19.789Z,25.80
2019-02-06T18:26:42.478Z,27.47
2019-02-06T18:30:47.760Z,28.07
2019-02-06T18:34:52.627Z,32.07
2019-02-06T18:38:57.584Z,28.87
2019-02-06T18:43:03.247Z,31.07
2019-02-06T18:47:08.506Z,31.57
2019-02-06T18:51:13.332Z,29.93
2019-02-06T18:55:21.065Z,28.93
2019-02-06T18:59:25.123Z,27.90
2019-02-06T19:03:39.005Z,33.50
2019-02-06T19:07:44.239Z,30.60
2019-02-06T19:11:49.328Z,30.07
2019-02-06T19:15:56.589Z,31.03
2019-02-06T19:20:01.037Z,31.23
2019-02-06T19:24:06.235Z,28.83
2019-02-06T19:28:11.046Z,29.83
2019-02-06T19:32:16.663Z,27.57
2019-02-06T19:36:21.611Z,27.97
2019-02-06T19:40:26.441Z,31.70
2019-02-06T19:44:31.324Z,26.97
2019-02-06T19:48:36.239Z,29.70
2019-02-06T19:52:41.593Z,26.80
2019-02-06T19:56:46.444Z,30.70
2019-02-06T20:00:51.286Z,31.37
2019-02-06T20:04:56.266Z,32.37
2019-02-06T20:09:01.094Z,30.93
2019-02-06T20:13:11.325Z,30.27
2019-02-06T20:17:14.095Z,33.33
2019-02-06T20:21:18.974Z,32.17
2019-02-06T20:25:23.803Z,30.73
2019-02-06T20:29:28.632Z,36.90
2019-02-06T20:33:33.440Z,36.53
2019-02-06T20:37:38.732Z,36.83
2019-02-06T20:41:43.541Z,35.37
2019-02-06T20:45:48.495Z,39.70
2019-02-06T20:49:53.331Z,40.67
2019-02-06T20:53:58.146Z,39.97
2019-02-06T20:58:03.271Z,40.60
2019-02-06T21:02:08.345Z,41.37
2019-02-06T21:06:13.452Z,50.57
2019-02-06T21:10:20.323Z,55.00
2019-02-06T21:14:25.171Z,40.93
2019-02-06T21:18:29.960Z,44.13
2019-02-06T21:22:34.852Z,43.97
2019-02-06T21:26:39.679Z,42.17
2019-02-06T21:30:46.855Z,52.60
2019-02-06T21:34:51.050Z,51.00
2019-02-06T21:38:55.930Z,45.40
2019-02-06T21:43:01.085Z,44.67
2019-02-06T21:47:05.923Z,47.20
2019-02-06T21:51:11.060Z,44.17
2019-02-06T21:55:21.319Z,34.87
2019-02-06T21:59:26.128Z,31.57
2019-02-06T22:03:30.964Z,34.67
2019-02-06T22:07:36.118Z,33.20
2019-02-06T22:11:41.314Z,28.00
2019-02-06T22:15:46.559Z,26.07
2019-02-06T22:19:51.460Z,29.83
2019-02-06T22:23:56.532Z,25.97
2019-02-06T22:28:01.368Z,29.60
2019-02-06T22:32:06.253Z,28.63
2019-02-06T22:36:11.081Z,39.67
2019-02-06T22:40:18.616Z,43.20
2019-02-06T22:44:23.439Z,52.07
2019-02-06T22:48:28.575Z,49.60
2019-02-06T22:52:33.411Z,48.37
2019-02-06T22:56:41.147Z,48.90
2019-02-06T23:01:00.148Z,43.13
2019-02-06T23:05:06.460Z,48.23
2019-02-06T23:09:11.595Z,54.08
2019-02-06T23:13:16.688Z,54.30
2019-02-06T23:17:21.583Z,57.83
2019-02-06T23:21:26.392Z,54.50
2019-02-06T23:25:31.257Z,50.23
2019-02-06T23:29:36.084Z,51.17
2019-02-06T23:33:40.919Z,51.37
2019-02-06T23:37:46.202Z,45.03
2019-02-06T23:41:51.035Z,34.70
2019-02-06T23:45:55.860Z,32.27
2019-02-06T23:50:00.739Z,34.87
2019-02-06T23:54:05.875Z,32.80
2019-02-06T23:58:10.719Z,33.00
